Mangnai, China
Current Conditions -  °F | °C
As of 11:30 PM on Tuesday 21 Oct 2014 (Local Time) from ZWWW Reporting Station
Clear Clear  
Wind Chill: 55°   Ceiling: Unl
Heat Index: 55°   Visibility: 6mi
Dew Point: 34°   Wind: 2mph
Humidity: 44%   Direction: 20°NNE
Pressure: 30.27"   Gusts: NA
Location:  38.25°N, 90.85°E
Report Text: ZWWW 211530Z 02001MPS CAVOK 13/01 Q1025 NOSIG
Loading
Personal Weather Stations






























Interactive Weather Map
Tropical Storm Tracking
New forecast layout! Learn more

10-Day Weather Forecast

Advertisements
Track Severe Weather on mobile